地図

経路データ

SID SEASON NUMBER BASIN SUBBASIN NAME ISO_TIME NATURE LAT LON WMO_WIND WMO_PRES WMO_AGENCY TRACK_TYPE DIST2LAND LANDFALL IFLAG USA_AGENCY USA_ATCF_ID USA_LAT USA_LON USA_RECORD USA_STATUS USA_WIND USA_PRES USA_SSHS USA_R34_NE USA_R34_SE USA_R34_SW USA_R34_NW USA_R50_NE USA_R50_SE USA_R50_SW USA_R50_NW USA_R64_NE USA_R64_SE USA_R64_SW USA_R64_NW USA_POCI USA_ROCI USA_RMW USA_EYE TOKYO_LAT TOKYO_LON TOKYO_GRADE TOKYO_WIND TOKYO_PRES TOKYO_R50_DIR TOKYO_R50_LONG TOKYO_R50_SHORT TOKYO_R30_DIR TOKYO_R30_LONG TOKYO_R30_SHORT TOKYO_LAND CMA_LAT CMA_LON CMA_CAT CMA_WIND CMA_PRES HKO_LAT HKO_LON HKO_CAT HKO_WIND HKO_PRES NEWDELHI_LAT NEWDELHI_LON NEWDELHI_GRADE NEWDELHI_WIND NEWDELHI_PRES NEWDELHI_CI NEWDELHI_DP NEWDELHI_POCI REUNION_LAT REUNION_LON REUNION_TYPE REUNION_WIND REUNION_PRES REUNION_TNUM REUNION_CI REUNION_RMW REUNION_R34_NE REUNION_R34_SE REUNION_R34_SW REUNION_R34_NW REUNION_R50_NE REUNION_R50_SE REUNION_R50_SW REUNION_R50_NW REUNION_R64_NE REUNION_R64_SE REUNION_R64_SW REUNION_R64_NW BOM_LAT BOM_LON BOM_TYPE BOM_WIND BOM_PRES BOM_TNUM BOM_CI BOM_RMW BOM_R34_NE BOM_R34_SE BOM_R34_SW BOM_R34_NW BOM_R50_NE BOM_R50_SE BOM_R50_SW BOM_R50_NW BOM_R64_NE BOM_R64_SE BOM_R64_SW BOM_R64_NW BOM_ROCI BOM_POCI BOM_EYE BOM_POS_METHOD BOM_PRES_METHOD NADI_LAT NADI_LON NADI_CAT NADI_WIND NADI_PRES WELLINGTON_LAT WELLINGTON_LON WELLINGTON_WIND WELLINGTON_PRES DS824_LAT DS824_LON DS824_STAGE DS824_WIND DS824_PRES TD9636_LAT TD9636_LON TD9636_STAGE TD9636_WIND TD9636_PRES TD9635_LAT TD9635_LON TD9635_WIND TD9635_PRES TD9635_ROCI NEUMANN_LAT NEUMANN_LON NEUMANN_CLASS NEUMANN_WIND NEUMANN_PRES MLC_LAT MLC_LON MLC_CLASS MLC_WIND MLC_PRES USA_GUST BOM_GUST BOM_GUST_PER REUNION_GUST REUNION_GUST_PER USA_SEAHGT USA_SEARAD_NE USA_SEARAD_SE USA_SEARAD_SW USA_SEARAD_NW STORM_SPEED STORM_DIR
1907270N22266 1907 52 NA GM NOT_NAMED 1907-09-27 06:00:00 TS 22.3000 -94.1000 35 hurdat_atl main 339 339 O_____________ hurdat_atl AL031907 22.3000 -94.1000 TS 35 0 12 38
1907270N22266 1907 52 NA GM NOT_NAMED 1907-09-27 09:00:00 TS 22.7803 -93.6907 main 394 387 P_____________ AL031907 22.7803 -93.6907 TS 35 0 12 36
1907270N22266 1907 52 NA GM NOT_NAMED 1907-09-27 12:00:00 TS 23.3000 -93.3000 35 hurdat_atl main 394 393 O_____________ hurdat_atl AL031907 23.3000 -93.3000 TS 35 0 13 32
1907270N22266 1907 52 NA GM NOT_NAMED 1907-09-27 15:00:00 TS 23.8846 -92.9293 main 411 411 P_____________ AL031907 23.8846 -92.9293 TS 35 0 14 31
1907270N22266 1907 52 NA GM NOT_NAMED 1907-09-27 18:00:00 TS 24.5000 -92.5000 35 hurdat_atl main 441 441 O_____________ hurdat_atl AL031907 24.5000 -92.5000 TS 35 0 15 37
1907270N22266 1907 52 NA GM NOT_NAMED 1907-09-27 21:00:00 TS 25.0925 -91.9371 main 457 381 P_____________ AL031907 25.0925 -91.9371 TS 35 0 16 42
1907270N22266 1907 52 NA GM NOT_NAMED 1907-09-28 00:00:00 TS 25.7000 -91.3000 35 hurdat_atl main 381 312 O_____________ hurdat_atl AL031907 25.7000 -91.3000 TS 35 0 17 42
1907270N22266 1907 52 NA GM NOT_NAMED 1907-09-28 03:00:00 TS 26.3421 -90.6717 main 312 234 P_____________ AL031907 26.3421 -90.6717 TS 35 0 18 42
1907270N22266 1907 52 NA GM NOT_NAMED 1907-09-28 06:00:00 TS 27.0000 -90.0000 35 hurdat_atl main 234 157 O_____________ hurdat_atl AL031907 27.0000 -90.0000 TS 35 0 18 43
1907270N22266 1907 52 NA GM NOT_NAMED 1907-09-28 09:00:00 TS 27.6493 -89.2938 main 157 97 P_____________ AL031907 27.6493 -89.2938 TS 37 0 19 46
1907270N22266 1907 52 NA GM NOT_NAMED 1907-09-28 12:00:00 TS 28.3000 -88.5000 40 hurdat_atl main 97 95 O_____________ hurdat_atl AL031907 28.3000 -88.5000 TS 40 0 19 48
1907270N22266 1907 52 NA GM NOT_NAMED 1907-09-28 15:00:00 TS 28.9255 -87.6672 main 128 89 P_____________ AL031907 28.9255 -87.6672 TS 42 0 21 52
1907270N22266 1907 52 NA GM NOT_NAMED 1907-09-28 18:00:00 TS 29.6000 -86.6000 45 hurdat_atl main 89 0 O_____________ hurdat_atl AL031907 29.6000 -86.6000 TS 45 0 25 56
1907270N22266 1907 52 NA GM NOT_NAMED 1907-09-28 20:00:00 TS 30.1000 -85.7000 45 hurdat_atl main 0 0 O_____________ hurdat_atl AL031907 30.1000 -85.7000 L TS 45 0 27 57
1907270N22266 1907 52 NA NA NOT_NAMED 1907-09-28 21:00:00 TS 30.3247 -85.3144 main 0 0 P_____________ AL031907 30.3247 -85.3144 TS 43 0 22 56
1907270N22266 1907 52 NA NA NOT_NAMED 1907-09-29 00:00:00 TS 30.9000 -84.3000 40 hurdat_atl main 0 0 O_____________ hurdat_atl AL031907 30.9000 -84.3000 TS 40 0 21 60
1907270N22266 1907 52 NA NA NOT_NAMED 1907-09-29 03:00:00 TS 31.3759 -83.1608 main 0 0 P_____________ AL031907 31.3759 -83.1608 TS 37 0 22 66
1907270N22266 1907 52 NA NA NOT_NAMED 1907-09-29 06:00:00 TS 31.8000 -81.9000 35 hurdat_atl main 0 0 O_____________ hurdat_atl AL031907 31.8000 -81.9000 TS 35 0 24 69
1907270N22266 1907 52 NA NA NOT_NAMED 1907-09-29 09:00:00 TS 32.2180 -80.5290 main 14 14 P_____________ AL031907 32.2180 -80.5290 TS 35 0 26 70
1907270N22266 1907 52 NA NA NOT_NAMED 1907-09-29 12:00:00 TS 32.7000 -79.0000 35 hurdat_atl main 50 50 O_____________ hurdat_atl AL031907 32.7000 -79.0000 TS 35 0 29 68
1907270N22266 1907 52 NA NA NOT_NAMED 1907-09-29 15:00:00 TS 33.3028 -77.3301 main 93 93 P_____________ AL031907 33.3028 -77.3301 TS 32 -1 32 66
1907270N22266 1907 52 NA NA NOT_NAMED 1907-09-29 18:00:00 ET 34.0000 -75.5000 30 hurdat_atl main 120 120 O_____________ hurdat_atl AL031907 34.0000 -75.5000 EX 30 -4 35 65
1907270N22266 1907 52 NA NA NOT_NAMED 1907-09-29 21:00:00 ET 34.7469 -73.5430 main 218 218 P_____________ AL031907 34.7469 -73.5430 EX 30 -4 36 65
1907270N22266 1907 52 NA NA NOT_NAMED 1907-09-30 00:00:00 ET 35.5000 -71.5000 30 hurdat_atl main 362 O_____________ hurdat_atl AL031907 35.5000 -71.5000 EX 30 -4 37 66

IBTrACS Databaseについて

本データベースは、米国NOAAが公開する1842年以降の世界の熱帯低気圧のベストトラックデータアーカイブInternational Best Track Archive for Climate Stewardship (IBTrACS)を、ウェブで閲覧しやすい形式に変換したものです。

最終更新日:2021-12-03